sensor_id;sensor_type;location;lat;lon;timestamp;temperature;humidity
20977;DHT22;10647;51.016;3.720;2022-12-10T00:01:42;2.50;99.90
20977;DHT22;10647;51.016;3.720;2022-12-10T00:04:11;2.40;99.90
20977;DHT22;10647;51.016;3.720;2022-12-10T00:06:41;2.40;99.90
20977;DHT22;10647;51.016;3.720;2022-12-10T00:09:17;2.40;99.90
20977;DHT22;10647;51.016;3.720;2022-12-10T00:11:48;2.40;99.90
20977;DHT22;10647;51.016;3.720;2022-12-10T00:14:15;2.30;99.90
20977;DHT22;10647;51.016;3.720;2022-12-10T00:16:43;2.30;99.90
20977;DHT22;10647;51.016;3.720;2022-12-10T00:19:30;2.20;99.90
20977;DHT22;10647;51.016;3.720;2022-12-10T00:21:58;2.10;99.90
20977;DHT22;10647;51.016;3.720;2022-12-10T00:24:25;2.00;99.90
20977;DHT22;10647;51.016;3.720;2022-12-10T00:26:54;2.00;99.90
20977;DHT22;10647;51.016;3.720;2022-12-10T00:29:21;1.90;99.90
20977;DHT22;10647;51.016;3.720;2022-12-10T00:31:49;1.80;99.90
20977;DHT22;10647;51.016;3.720;2022-12-10T00:34:16;1.80;99.90
20977;DHT22;10647;51.016;3.720;2022-12-10T00:36:46;1.80;99.90
20977;DHT22;10647;51.016;3.720;2022-12-10T00:39:17;1.80;99.90
20977;DHT22;10647;51.016;3.720;2022-12-10T00:41:45;1.80;99.90
20977;DHT22;10647;51.016;3.720;2022-12-10T00:44:14;1.80;99.90
20977;DHT22;10647;51.016;3.720;2022-12-10T00:46:43;1.80;99.90
20977;DHT22;10647;51.016;3.720;2022-12-10T00:49:11;1.90;99.90
20977;DHT22;10647;51.016;3.720;2022-12-10T00:51:38;2.00;99.90
20977;DHT22;10647;51.016;3.720;2022-12-10T00:54:07;2.00;99.90
20977;DHT22;10647;51.016;3.720;2022-12-10T00:56:41;2.10;99.90
20977;DHT22;10647;51.016;3.720;2022-12-10T00:59:11;2.10;99.90
20977;DHT22;10647;51.016;3.720;2022-12-10T01:01:42;2.10;99.90
20977;DHT22;10647;51.016;3.720;2022-12-10T01:04:14;2.10;99.90
20977;DHT22;10647;51.016;3.720;2022-12-10T01:06:48;2.10;99.90
20977;DHT22;10647;51.016;3.720;2022-12-10T01:09:18;2.10;99.90
20977;DHT22;10647;51.016;3.720;2022-12-10T01:11:46;2.20;99.90
20977;DHT22;10647;51.016;3.720;2022-12-10T01:14:23;2.20;99.90
20977;DHT22;10647;51.016;3.720;2022-12-10T01:16:59;2.10;99.90
20977;DHT22;10647;51.016;3.720;2022-12-10T01:19:29;2.00;99.90
20977;DHT22;10647;51.016;3.720;2022-12-10T01:21:57;1.90;99.90
20977;DHT22;10647;51.016;3.720;2022-12-10T01:24:26;1.80;99.90
20977;DHT22;10647;51.016;3.720;2022-12-10T01:26:54;1.80;99.90
20977;DHT22;10647;51.016;3.720;2022-12-10T01:29:23;1.80;99.90
20977;DHT22;10647;51.016;3.720;2022-12-10T01:34:43;1.60;99.90
20977;DHT22;10647;51.016;3.720;2022-12-10T01:37:16;1.60;99.90
20977;DHT22;10647;51.016;3.720;2022-12-10T01:40:03;1.60;99.90
20977;DHT22;10647;51.016;3.720;2022-12-10T01:42:31;1.70;99.90
20977;DHT22;10647;51.016;3.720;2022-12-10T01:45:07;1.80;99.90
20977;DHT22;10647;51.016;3.720;2022-12-10T01:47:35;1.90;99.90
20977;DHT22;10647;51.016;3.720;2022-12-10T01:50:05;2.00;99.90
20977;DHT22;10647;51.016;3.720;2022-12-10T01:52:36;2.00;99.90
20977;DHT22;10647;51.016;3.720;2022-12-10T01:55:06;2.10;99.90
20977;DHT22;10647;51.016;3.720;2022-12-10T01:57:36;2.10;99.90
20977;DHT22;10647;51.016;3.720;2022-12-10T02:00:06;2.10;99.90
20977;DHT22;10647;51.016;3.720;2022-12-10T02:02:42;2.10;99.90
20977;DHT22;10647;51.016;3.720;2022-12-10T02:05:25;2.20;99.90
20977;DHT22;10647;51.016;3.720;2022-12-10T02:08:08;2.20;99.90
20977;DHT22;10647;51.016;3.720;2022-12-10T02:13:27;2.20;99.90
20977;DHT22;10647;51.016;3.720;2022-12-10T02:16:13;2.20;99.90
20977;DHT22;10647;51.016;3.720;2022-12-10T02:18:51;2.20;99.90
20977;DHT22;10647;51.016;3.720;2022-12-10T02:21:24;2.20;99.90
20977;DHT22;10647;51.016;3.720;2022-12-10T02:23:54;2.20;99.90
20977;DHT22;10647;51.016;3.720;2022-12-10T02:29:15;2.20;99.90
20977;DHT22;10647;51.016;3.720;2022-12-10T02:31:55;2.20;99.90
20977;DHT22;10647;51.016;3.720;2022-12-10T02:34:24;2.20;99.90
20977;DHT22;10647;51.016;3.720;2022-12-10T02:36:55;2.20;99.90
20977;DHT22;10647;51.016;3.720;2022-12-10T02:39:27;2.30;99.90
20977;DHT22;10647;51.016;3.720;2022-12-10T02:41:59;2.30;99.90
20977;DHT22;10647;51.016;3.720;2022-12-10T02:44:29;2.30;99.90
20977;DHT22;10647;51.016;3.720;2022-12-10T02:49:53;2.40;99.90
20977;DHT22;10647;51.016;3.720;2022-12-10T02:52:28;2.40;99.90
20977;DHT22;10647;51.016;3.720;2022-12-10T02:54:56;2.40;99.90
20977;DHT22;10647;51.016;3.720;2022-12-10T03:00:14;2.40;99.90
20977;DHT22;10647;51.016;3.720;2022-12-10T03:09:09;2.40;99.90
20977;DHT22;10647;51.016;3.720;2022-12-10T03:17:02;2.50;99.90
20977;DHT22;10647;51.016;3.720;2022-12-10T03:19:39;2.50;99.90
20977;DHT22;10647;51.016;3.720;2022-12-10T03:21:57;2.60;99.90
20977;DHT22;10647;51.016;3.720;2022-12-10T03:24:27;2.60;99.90
20977;DHT22;10647;51.016;3.720;2022-12-10T03:26:55;2.60;99.90
20977;DHT22;10647;51.016;3.720;2022-12-10T03:29:30;2.70;99.90
20977;DHT22;10647;51.016;3.720;2022-12-10T03:31:58;2.70;99.90
20977;DHT22;10647;51.016;3.720;2022-12-10T03:34:27;2.70;99.90
20977;DHT22;10647;51.016;3.720;2022-12-10T03:36:55;2.70;99.90
20977;DHT22;10647;51.016;3.720;2022-12-10T03:39:29;2.70;99.90
20977;DHT22;10647;51.016;3.720;2022-12-10T03:42:16;2.70;99.90
20977;DHT22;10647;51.016;3.720;2022-12-10T03:44:43;2.70;99.90
20977;DHT22;10647;51.016;3.720;2022-12-10T03:47:13;2.80;99.90
20977;DHT22;10647;51.016;3.720;2022-12-10T03:49:42;2.70;99.90
20977;DHT22;10647;51.016;3.720;2022-12-10T03:52:10;2.80;99.90
20977;DHT22;10647;51.016;3.720;2022-12-10T03:54:38;2.80;99.90
20977;DHT22;10647;51.016;3.720;2022-12-10T03:57:06;2.80;99.90
20977;DHT22;10647;51.016;3.720;2022-12-10T03:59:33;2.90;99.90
20977;DHT22;10647;51.016;3.720;2022-12-10T04:02:01;2.90;99.90
20977;DHT22;10647;51.016;3.720;2022-12-10T04:04:28;3.00;99.90
20977;DHT22;10647;51.016;3.720;2022-12-10T04:06:56;3.00;99.90
20977;DHT22;10647;51.016;3.720;2022-12-10T04:09:23;3.00;99.90
20977;DHT22;10647;51.016;3.720;2022-12-10T04:11:56;3.00;99.90
20977;DHT22;10647;51.016;3.720;2022-12-10T04:14:45;3.00;99.90
20977;DHT22;10647;51.016;3.720;2022-12-10T04:17:32;3.00;99.90
20977;DHT22;10647;51.016;3.720;2022-12-10T04:20:00;3.00;99.90
20977;DHT22;10647;51.016;3.720;2022-12-10T04:22:27;3.00;99.90
20977;DHT22;10647;51.016;3.720;2022-12-10T04:28:18;3.00;99.90
20977;DHT22;10647;51.016;3.720;2022-12-10T04:30:46;3.00;99.90
20977;DHT22;10647;51.016;3.720;2022-12-10T04:33:13;3.00;99.90
20977;DHT22;10647;51.016;3.720;2022-12-10T04:35:41;3.00;99.90
20977;DHT22;10647;51.016;3.720;2022-12-10T04:38:08;3.00;99.90
20977;DHT22;10647;51.016;3.720;2022-12-10T04:40:36;3.10;99.90
20977;DHT22;10647;51.016;3.720;2022-12-10T04:43:06;3.10;99.90
20977;DHT22;10647;51.016;3.720;2022-12-10T04:45:35;3.10;99.90
20977;DHT22;10647;51.016;3.720;2022-12-10T04:48:08;3.10;99.90
20977;DHT22;10647;51.016;3.720;2022-12-10T04:50:36;3.10;99.90
20977;DHT22;10647;51.016;3.720;2022-12-10T04:53:03;3.00;99.90
20977;DHT22;10647;51.016;3.720;2022-12-10T04:55:31;3.10;99.90
20977;DHT22;10647;51.016;3.720;2022-12-10T04:57:59;3.10;99.90
20977;DHT22;10647;51.016;3.720;2022-12-10T05:00:27;3.10;99.90
20977;DHT22;10647;51.016;3.720;2022-12-10T05:02:57;3.10;99.90
20977;DHT22;10647;51.016;3.720;2022-12-10T05:05:25;3.00;99.90
20977;DHT22;10647;51.016;3.720;2022-12-10T05:07:52;3.10;99.90
20977;DHT22;10647;51.016;3.720;2022-12-10T05:10:20;3.10;99.90
20977;DHT22;10647;51.016;3.720;2022-12-10T05:12:50;3.10;99.90
20977;DHT22;10647;51.016;3.720;2022-12-10T05:15:21;3.10;99.90
20977;DHT22;10647;51.016;3.720;2022-12-10T05:17:48;3.10;99.90
20977;DHT22;10647;51.016;3.720;2022-12-10T05:20:18;3.10;99.90
20977;DHT22;10647;51.016;3.720;2022-12-10T05:22:46;3.10;99.90
20977;DHT22;10647;51.016;3.720;2022-12-10T05:25:31;3.10;99.90
20977;DHT22;10647;51.016;3.720;2022-12-10T05:28:00;3.10;99.90
20977;DHT22;10647;51.016;3.720;2022-12-10T05:30:34;3.10;99.90
20977;DHT22;10647;51.016;3.720;2022-12-10T05:33:01;3.10;99.90
20977;DHT22;10647;51.016;3.720;2022-12-10T05:35:30;3.10;99.90
20977;DHT22;10647;51.016;3.720;2022-12-10T05:37:57;3.10;99.90
20977;DHT22;10647;51.016;3.720;2022-12-10T05:40:25;3.10;99.90
20977;DHT22;10647;51.016;3.720;2022-12-10T05:42:55;3.10;99.90
20977;DHT22;10647;51.016;3.720;2022-12-10T05:45:23;3.10;99.90
20977;DHT22;10647;51.016;3.720;2022-12-10T05:47:51;3.10;99.90
20977;DHT22;10647;51.016;3.720;2022-12-10T05:50:18;3.10;99.90
20977;DHT22;10647;51.016;3.720;2022-12-10T05:52:46;3.10;99.90
20977;DHT22;10647;51.016;3.720;2022-12-10T05:55:13;3.20;99.90
20977;DHT22;10647;51.016;3.720;2022-12-10T05:57:41;3.20;99.90
20977;DHT22;10647;51.016;3.720;2022-12-10T06:00:14;3.20;99.90
20977;DHT22;10647;51.016;3.720;2022-12-10T06:02:43;3.20;99.90
20977;DHT22;10647;51.016;3.720;2022-12-10T06:05:10;3.20;99.90
20977;DHT22;10647;51.016;3.720;2022-12-10T06:07:38;3.20;99.90
20977;DHT22;10647;51.016;3.720;2022-12-10T06:10:06;3.20;99.90
20977;DHT22;10647;51.016;3.720;2022-12-10T06:12:34;3.20;99.90
20977;DHT22;10647;51.016;3.720;2022-12-10T06:15:03;3.20;99.90
20977;DHT22;10647;51.016;3.720;2022-12-10T06:17:32;3.20;99.90
20977;DHT22;10647;51.016;3.720;2022-12-10T06:19:59;3.20;99.90
20977;DHT22;10647;51.016;3.720;2022-12-10T06:22:28;3.20;99.90
20977;DHT22;10647;51.016;3.720;2022-12-10T06:24:55;3.10;99.90
20977;DHT22;10647;51.016;3.720;2022-12-10T06:27:23;3.10;99.90
20977;DHT22;10647;51.016;3.720;2022-12-10T06:29:51;3.10;99.90
20977;DHT22;10647;51.016;3.720;2022-12-10T06:32:20;3.10;99.90
20977;DHT22;10647;51.016;3.720;2022-12-10T06:34:47;3.10;99.90
20977;DHT22;10647;51.016;3.720;2022-12-10T06:37:15;3.20;99.90
20977;DHT22;10647;51.016;3.720;2022-12-10T06:39:51;3.20;99.90
20977;DHT22;10647;51.016;3.720;2022-12-10T06:42:34;3.20;99.90
20977;DHT22;10647;51.016;3.720;2022-12-10T06:45:05;3.20;99.90
20977;DHT22;10647;51.016;3.720;2022-12-10T06:47:43;3.30;99.90
20977;DHT22;10647;51.016;3.720;2022-12-10T06:50:16;3.30;99.90
20977;DHT22;10647;51.016;3.720;2022-12-10T06:52:47;3.20;99.90
20977;DHT22;10647;51.016;3.720;2022-12-10T06:55:15;3.20;99.90
20977;DHT22;10647;51.016;3.720;2022-12-10T06:57:44;3.20;99.90
20977;DHT22;10647;51.016;3.720;2022-12-10T07:00:13;3.20;99.90
20977;DHT22;10647;51.016;3.720;2022-12-10T07:02:41;3.20;99.90
20977;DHT22;10647;51.016;3.720;2022-12-10T07:05:09;3.20;99.90
20977;DHT22;10647;51.016;3.720;2022-12-10T07:07:38;3.20;99.90
20977;DHT22;10647;51.016;3.720;2022-12-10T07:10:06;3.30;99.90
20977;DHT22;10647;51.016;3.720;2022-12-10T07:12:33;3.40;99.90
20977;DHT22;10647;51.016;3.720;2022-12-10T07:15:01;3.40;99.90
20977;DHT22;10647;51.016;3.720;2022-12-10T07:17:34;3.40;99.90
20977;DHT22;10647;51.016;3.720;2022-12-10T07:20:02;3.40;99.90
20977;DHT22;10647;51.016;3.720;2022-12-10T07:22:38;3.40;99.90
20977;DHT22;10647;51.016;3.720;2022-12-10T07:25:06;3.30;99.90
20977;DHT22;10647;51.016;3.720;2022-12-10T07:27:34;3.30;99.90
20977;DHT22;10647;51.016;3.720;2022-12-10T07:30:02;3.30;99.90
20977;DHT22;10647;51.016;3.720;2022-12-10T07:32:30;3.40;99.90
20977;DHT22;10647;51.016;3.720;2022-12-10T07:35:00;3.40;99.90
20977;DHT22;10647;51.016;3.720;2022-12-10T07:37:27;3.40;99.90
20977;DHT22;10647;51.016;3.720;2022-12-10T07:39:55;3.40;99.90
20977;DHT22;10647;51.016;3.720;2022-12-10T07:42:42;3.40;99.90
20977;DHT22;10647;51.016;3.720;2022-12-10T07:45:10;3.30;99.90
20977;DHT22;10647;51.016;3.720;2022-12-10T07:47:38;3.30;99.90
20977;DHT22;10647;51.016;3.720;2022-12-10T07:50:12;3.30;99.90
20977;DHT22;10647;51.016;3.720;2022-12-10T07:52:39;3.30;99.90
20977;DHT22;10647;51.016;3.720;2022-12-10T07:55:10;3.40;99.90
20977;DHT22;10647;51.016;3.720;2022-12-10T07:57:38;3.50;99.90
20977;DHT22;10647;51.016;3.720;2022-12-10T08:00:12;3.50;99.90
20977;DHT22;10647;51.016;3.720;2022-12-10T08:02:40;3.60;99.90
20977;DHT22;10647;51.016;3.720;2022-12-10T08:05:08;3.60;99.90
20977;DHT22;10647;51.016;3.720;2022-12-10T08:07:37;3.70;99.90
20977;DHT22;10647;51.016;3.720;2022-12-10T08:10:11;3.70;99.90
20977;DHT22;10647;51.016;3.720;2022-12-10T08:12:39;3.80;99.90
20977;DHT22;10647;51.016;3.720;2022-12-10T08:15:07;3.70;99.90
20977;DHT22;10647;51.016;3.720;2022-12-10T08:20:25;3.80;99.90
20977;DHT22;10647;51.016;3.720;2022-12-10T08:22:52;3.70;99.90
20977;DHT22;10647;51.016;3.720;2022-12-10T08:25:20;3.80;99.90
20977;DHT22;10647;51.016;3.720;2022-12-10T08:27:47;3.80;99.90
20977;DHT22;10647;51.016;3.720;2022-12-10T08:30:15;3.90;99.90
20977;DHT22;10647;51.016;3.720;2022-12-10T08:32:42;3.90;99.90
20977;DHT22;10647;51.016;3.720;2022-12-10T08:35:11;3.90;99.90
20977;DHT22;10647;51.016;3.720;2022-12-10T08:37:58;4.00;99.90
20977;DHT22;10647;51.016;3.720;2022-12-10T08:40:25;4.00;99.90
20977;DHT22;10647;51.016;3.720;2022-12-10T08:42:54;4.00;99.90
20977;DHT22;10647;51.016;3.720;2022-12-10T08:45:21;4.00;99.90
20977;DHT22;10647;51.016;3.720;2022-12-10T08:47:55;4.00;99.90
20977;DHT22;10647;51.016;3.720;2022-12-10T08:50:22;4.10;99.90
20977;DHT22;10647;51.016;3.720;2022-12-10T08:52:50;4.10;99.90
20977;DHT22;10647;51.016;3.720;2022-12-10T08:55:20;4.00;99.90
20977;DHT22;10647;51.016;3.720;2022-12-10T08:57:49;4.10;99.90
20977;DHT22;10647;51.016;3.720;2022-12-10T09:00:18;4.20;99.90
20977;DHT22;10647;51.016;3.720;2022-12-10T09:02:45;4.30;99.90
20977;DHT22;10647;51.016;3.720;2022-12-10T09:05:13;4.30;99.90
20977;DHT22;10647;51.016;3.720;2022-12-10T09:07:40;4.40;99.90
20977;DHT22;10647;51.016;3.720;2022-12-10T09:10:10;4.40;99.90
20977;DHT22;10647;51.016;3.720;2022-12-10T09:12:46;4.40;99.90
20977;DHT22;10647;51.016;3.720;2022-12-10T09:15:13;4.50;99.90
20977;DHT22;10647;51.016;3.720;2022-12-10T09:17:42;4.50;99.90
20977;DHT22;10647;51.016;3.720;2022-12-10T09:20:09;4.60;99.90
20977;DHT22;10647;51.016;3.720;2022-12-10T09:22:37;4.70;99.90
20977;DHT22;10647;51.016;3.720;2022-12-10T09:25:05;4.80;99.90
20977;DHT22;10647;51.016;3.720;2022-12-10T09:27:33;5.00;99.90
20977;DHT22;10647;51.016;3.720;2022-12-10T09:30:01;5.10;99.90
20977;DHT22;10647;51.016;3.720;2022-12-10T09:32:28;5.30;99.90
20977;DHT22;10647;51.016;3.720;2022-12-10T09:34:57;5.30;99.90
20977;DHT22;10647;51.016;3.720;2022-12-10T09:37:25;5.30;99.90
20977;DHT22;10647;51.016;3.720;2022-12-10T09:39:53;5.30;99.90
20977;DHT22;10647;51.016;3.720;2022-12-10T09:48:23;5.30;99.90
20977;DHT22;10647;51.016;3.720;2022-12-10T09:50:55;5.30;99.90
20977;DHT22;10647;51.016;3.720;2022-12-10T09:53:24;5.30;99.90
20977;DHT22;10647;51.016;3.720;2022-12-10T09:55:53;5.40;99.90
20977;DHT22;10647;51.016;3.720;2022-12-10T09:58:25;5.40;99.90
20977;DHT22;10647;51.016;3.720;2022-12-10T10:03:53;5.40;99.90
20977;DHT22;10647;51.016;3.720;2022-12-10T10:06:21;5.30;99.90
20977;DHT22;10647;51.016;3.720;2022-12-10T10:08:52;5.40;99.90
20977;DHT22;10647;51.016;3.720;2022-12-10T10:11:24;5.50;99.90
20977;DHT22;10647;51.016;3.720;2022-12-10T10:13:55;5.50;99.90
20977;DHT22;10647;51.016;3.720;2022-12-10T10:19:25;5.80;99.90
20977;DHT22;10647;51.016;3.720;2022-12-10T10:21:50;5.90;99.90
20977;DHT22;10647;51.016;3.720;2022-12-10T10:24:20;5.70;99.90
20977;DHT22;10647;51.016;3.720;2022-12-10T10:27:16;5.70;99.90
20977;DHT22;10647;51.016;3.720;2022-12-10T10:29:47;5.70;99.90
20977;DHT22;10647;51.016;3.720;2022-12-10T10:32:23;5.80;99.90
20977;DHT22;10647;51.016;3.720;2022-12-10T10:34:55;5.80;99.90
20977;DHT22;10647;51.016;3.720;2022-12-10T10:40:32;5.70;99.90
20977;DHT22;10647;51.016;3.720;2022-12-10T10:43:01;5.70;99.90
20977;DHT22;10647;51.016;3.720;2022-12-10T10:45:37;5.70;99.90
20977;DHT22;10647;51.016;3.720;2022-12-10T10:50:39;5.90;99.90
20977;DHT22;10647;51.016;3.720;2022-12-10T10:55:58;6.20;99.90
20977;DHT22;10647;51.016;3.720;2022-12-10T10:58:26;6.70;99.90
20977;DHT22;10647;51.016;3.720;2022-12-10T11:03:47;7.00;99.90
20977;DHT22;10647;51.016;3.720;2022-12-10T11:06:16;7.00;99.90
20977;DHT22;10647;51.016;3.720;2022-12-10T11:08:46;6.80;99.90
20977;DHT22;10647;51.016;3.720;2022-12-10T11:11:35;6.70;99.90
20977;DHT22;10647;51.016;3.720;2022-12-10T11:13:53;6.60;99.90
20977;DHT22;10647;51.016;3.720;2022-12-10T11:16:24;6.70;99.90
20977;DHT22;10647;51.016;3.720;2022-12-10T11:21:45;6.60;99.90
20977;DHT22;10647;51.016;3.720;2022-12-10T11:24:16;6.70;99.90
20977;DHT22;10647;51.016;3.720;2022-12-10T11:35:29;7.10;99.90
20977;DHT22;10647;51.016;3.720;2022-12-10T11:40:41;7.30;99.90
20977;DHT22;10647;51.016;3.720;2022-12-10T11:46:01;7.20;99.90
20977;DHT22;10647;51.016;3.720;2022-12-10T11:54:26;7.20;99.90
20977;DHT22;10647;51.016;3.720;2022-12-10T12:02:37;7.00;99.90
20977;DHT22;10647;51.016;3.720;2022-12-10T12:05:24;6.90;99.90
20977;DHT22;10647;51.016;3.720;2022-12-10T12:11:37;6.90;99.90
20977;DHT22;10647;51.016;3.720;2022-12-10T12:14:24;7.10;99.90
20977;DHT22;10647;51.016;3.720;2022-12-10T12:19:40;7.30;99.90
20977;DHT22;10647;51.016;3.720;2022-12-10T12:25:10;7.70;99.90
20977;DHT22;10647;51.016;3.720;2022-12-10T12:27:40;7.50;99.90
20977;DHT22;10647;51.016;3.720;2022-12-10T12:30:17;7.50;99.90
20977;DHT22;10647;51.016;3.720;2022-12-10T12:33:04;7.40;99.90
20977;DHT22;10647;51.016;3.720;2022-12-10T12:35:42;7.40;99.90
20977;DHT22;10647;51.016;3.720;2022-12-10T12:38:32;7.50;99.90
20977;DHT22;10647;51.016;3.720;2022-12-10T12:41:06;7.20;99.90
20977;DHT22;10647;51.016;3.720;2022-12-10T12:43:47;7.00;99.90
20977;DHT22;10647;51.016;3.720;2022-12-10T12:46:35;7.00;99.90
20977;DHT22;10647;51.016;3.720;2022-12-10T12:49:24;6.80;99.90
20977;DHT22;10647;51.016;3.720;2022-12-10T12:52:05;6.90;99.90
20977;DHT22;10647;51.016;3.720;2022-12-10T12:54:32;6.90;99.90
20977;DHT22;10647;51.016;3.720;2022-12-10T12:57:13;6.90;99.90
20977;DHT22;10647;51.016;3.720;2022-12-10T13:00:03;7.00;99.90
20977;DHT22;10647;51.016;3.720;2022-12-10T13:05:26;6.80;99.90
20977;DHT22;10647;51.016;3.720;2022-12-10T13:08:28;6.80;99.90
20977;DHT22;10647;51.016;3.720;2022-12-10T13:11:16;6.90;99.90
20977;DHT22;10647;51.016;3.720;2022-12-10T13:16:58;7.00;99.90
20977;DHT22;10647;51.016;3.720;2022-12-10T13:19:27;7.00;99.90
20977;DHT22;10647;51.016;3.720;2022-12-10T13:25:12;7.10;99.90
20977;DHT22;10647;51.016;3.720;2022-12-10T13:28:03;7.10;99.90
20977;DHT22;10647;51.016;3.720;2022-12-10T13:30:35;7.10;99.90
20977;DHT22;10647;51.016;3.720;2022-12-10T13:36:06;7.20;99.90
20977;DHT22;10647;51.016;3.720;2022-12-10T13:38:40;7.00;99.90
20977;DHT22;10647;51.016;3.720;2022-12-10T13:41:06;7.10;99.90
20977;DHT22;10647;51.016;3.720;2022-12-10T13:43:56;7.20;99.90
20977;DHT22;10647;51.016;3.720;2022-12-10T13:49:57;7.20;99.90
20977;DHT22;10647;51.016;3.720;2022-12-10T13:52:39;7.00;99.90
20977;DHT22;10647;51.016;3.720;2022-12-10T13:58:27;6.90;99.90
20977;DHT22;10647;51.016;3.720;2022-12-10T14:01:02;6.80;99.90
20977;DHT22;10647;51.016;3.720;2022-12-10T14:03:41;6.70;99.90
20977;DHT22;10647;51.016;3.720;2022-12-10T14:06:20;6.70;99.90
20977;DHT22;10647;51.016;3.720;2022-12-10T14:11:42;6.60;99.90
20977;DHT22;10647;51.016;3.720;2022-12-10T14:14:27;6.60;99.90
20977;DHT22;10647;51.016;3.720;2022-12-10T14:16:46;6.60;99.90
20977;DHT22;10647;51.016;3.720;2022-12-10T14:19:15;6.60;99.90
20977;DHT22;10647;51.016;3.720;2022-12-10T14:21:45;6.40;99.90
20977;DHT22;10647;51.016;3.720;2022-12-10T14:24:35;6.50;99.90
20977;DHT22;10647;51.016;3.720;2022-12-10T14:27:25;6.60;99.90
20977;DHT22;10647;51.016;3.720;2022-12-10T14:30:06;6.80;99.90
20977;DHT22;10647;51.016;3.720;2022-12-10T14:32:37;6.50;99.90
20977;DHT22;10647;51.016;3.720;2022-12-10T14:35:20;6.40;99.90
20977;DHT22;10647;51.016;3.720;2022-12-10T14:37:49;6.20;99.90
20977;DHT22;10647;51.016;3.720;2022-12-10T14:40:39;6.00;99.90
20977;DHT22;10647;51.016;3.720;2022-12-10T14:43:19;5.90;99.90
20977;DHT22;10647;51.016;3.720;2022-12-10T14:46:00;5.90;99.90
20977;DHT22;10647;51.016;3.720;2022-12-10T14:48:35;6.10;99.90
20977;DHT22;10647;51.016;3.720;2022-12-10T14:51:12;6.20;99.90
20977;DHT22;10647;51.016;3.720;2022-12-10T14:53:39;6.20;99.90
20977;DHT22;10647;51.016;3.720;2022-12-10T14:56:31;6.10;99.90
20977;DHT22;10647;51.016;3.720;2022-12-10T14:59:12;6.20;99.90
20977;DHT22;10647;51.016;3.720;2022-12-10T15:01:43;6.10;99.90
20977;DHT22;10647;51.016;3.720;2022-12-10T15:04:17;6.10;99.90
20977;DHT22;10647;51.016;3.720;2022-12-10T15:06:47;6.20;99.90
20977;DHT22;10647;51.016;3.720;2022-12-10T15:09:22;6.30;99.90
20977;DHT22;10647;51.016;3.720;2022-12-10T15:14:36;6.50;99.90
20977;DHT22;10647;51.016;3.720;2022-12-10T15:17:04;6.50;99.90
20977;DHT22;10647;51.016;3.720;2022-12-10T15:19:34;6.40;99.90
20977;DHT22;10647;51.016;3.720;2022-12-10T15:22:21;6.20;99.90
20977;DHT22;10647;51.016;3.720;2022-12-10T15:24:49;6.00;99.90
20977;DHT22;10647;51.016;3.720;2022-12-10T15:30:32;5.70;99.90
20977;DHT22;10647;51.016;3.720;2022-12-10T15:32:36;5.70;99.90
20977;DHT22;10647;51.016;3.720;2022-12-10T15:35:05;5.60;99.90
20977;DHT22;10647;51.016;3.720;2022-12-10T15:37:40;5.40;99.90
20977;DHT22;10647;51.016;3.720;2022-12-10T15:40:23;5.30;99.90
20977;DHT22;10647;51.016;3.720;2022-12-10T15:43:12;5.30;99.90
20977;DHT22;10647;51.016;3.720;2022-12-10T15:45:42;5.20;99.90
20977;DHT22;10647;51.016;3.720;2022-12-10T15:48:11;5.10;99.90
20977;DHT22;10647;51.016;3.720;2022-12-10T15:50:42;5.00;99.90
20977;DHT22;10647;51.016;3.720;2022-12-10T15:53:22;4.90;99.90
20977;DHT22;10647;51.016;3.720;2022-12-10T15:55:45;5.00;99.90
20977;DHT22;10647;51.016;3.720;2022-12-10T16:01:02;4.90;99.90
20977;DHT22;10647;51.016;3.720;2022-12-10T16:03:29;4.90;99.90
20977;DHT22;10647;51.016;3.720;2022-12-10T16:05:59;4.90;99.90
20977;DHT22;10647;51.016;3.720;2022-12-10T16:08:28;4.90;99.90
20977;DHT22;10647;51.016;3.720;2022-12-10T16:10:59;4.90;99.90
20977;DHT22;10647;51.016;3.720;2022-12-10T16:16:25;4.90;99.90
20977;DHT22;10647;51.016;3.720;2022-12-10T16:18:53;4.80;99.90
20977;DHT22;10647;51.016;3.720;2022-12-10T16:21:26;4.70;99.90
20977;DHT22;10647;51.016;3.720;2022-12-10T16:24:00;4.70;99.90
20977;DHT22;10647;51.016;3.720;2022-12-10T16:26:27;4.70;99.90
20977;DHT22;10647;51.016;3.720;2022-12-10T16:29:01;4.70;99.90
20977;DHT22;10647;51.016;3.720;2022-12-10T16:31:28;4.80;99.90
20977;DHT22;10647;51.016;3.720;2022-12-10T16:33:56;4.70;99.90
20977;DHT22;10647;51.016;3.720;2022-12-10T16:36:24;4.70;99.90
20977;DHT22;10647;51.016;3.720;2022-12-10T16:38:52;4.70;99.90
20977;DHT22;10647;51.016;3.720;2022-12-10T16:41:22;4.70;99.90
20977;DHT22;10647;51.016;3.720;2022-12-10T16:43:55;4.80;99.90
20977;DHT22;10647;51.016;3.720;2022-12-10T16:46:25;4.80;99.90
20977;DHT22;10647;51.016;3.720;2022-12-10T16:48:52;4.80;99.90
20977;DHT22;10647;51.016;3.720;2022-12-10T16:51:30;4.70;99.90
20977;DHT22;10647;51.016;3.720;2022-12-10T16:54:02;4.80;99.90
20977;DHT22;10647;51.016;3.720;2022-12-10T16:59:19;4.80;99.90
20977;DHT22;10647;51.016;3.720;2022-12-10T17:01:47;4.70;99.90
20977;DHT22;10647;51.016;3.720;2022-12-10T17:04:16;4.80;99.90
20977;DHT22;10647;51.016;3.720;2022-12-10T17:06:43;4.80;99.90
20977;DHT22;10647;51.016;3.720;2022-12-10T17:09:17;4.80;99.90
20977;DHT22;10647;51.016;3.720;2022-12-10T17:11:45;4.80;99.90
20977;DHT22;10647;51.016;3.720;2022-12-10T17:14:30;4.70;99.90
20977;DHT22;10647;51.016;3.720;2022-12-10T17:16:59;4.70;99.90
20977;DHT22;10647;51.016;3.720;2022-12-10T17:22:22;4.70;99.90
20977;DHT22;10647;51.016;3.720;2022-12-10T17:24:49;4.70;99.90
20977;DHT22;10647;51.016;3.720;2022-12-10T17:30:09;4.70;99.90
20977;DHT22;10647;51.016;3.720;2022-12-10T17:32:35;4.70;99.90
20977;DHT22;10647;51.016;3.720;2022-12-10T17:35:03;4.80;99.90
20977;DHT22;10647;51.016;3.720;2022-12-10T17:37:33;4.80;99.90
20977;DHT22;10647;51.016;3.720;2022-12-10T17:40:15;4.80;99.90
20977;DHT22;10647;51.016;3.720;2022-12-10T17:42:49;4.80;99.90
20977;DHT22;10647;51.016;3.720;2022-12-10T17:45:18;4.80;99.90
20977;DHT22;10647;51.016;3.720;2022-12-10T17:47:46;4.70;99.90
20977;DHT22;10647;51.016;3.720;2022-12-10T17:50:39;4.60;99.90
20977;DHT22;10647;51.016;3.720;2022-12-10T17:53:27;4.60;99.90
20977;DHT22;10647;51.016;3.720;2022-12-10T17:55:58;4.60;99.90
20977;DHT22;10647;51.016;3.720;2022-12-10T17:58:26;4.60;99.90
20977;DHT22;10647;51.016;3.720;2022-12-10T18:00:54;4.60;99.90
20977;DHT22;10647;51.016;3.720;2022-12-10T18:03:22;4.60;99.90
20977;DHT22;10647;51.016;3.720;2022-12-10T18:05:49;4.50;99.90
20977;DHT22;10647;51.016;3.720;2022-12-10T18:08:18;4.50;99.90
20977;DHT22;10647;51.016;3.720;2022-12-10T18:10:47;4.50;99.90
20977;DHT22;10647;51.016;3.720;2022-12-10T18:13:15;4.40;99.90
20977;DHT22;10647;51.016;3.720;2022-12-10T18:15:46;4.30;99.90
20977;DHT22;10647;51.016;3.720;2022-12-10T18:18:13;4.20;99.90
20977;DHT22;10647;51.016;3.720;2022-12-10T18:20:42;4.20;99.90
20977;DHT22;10647;51.016;3.720;2022-12-10T18:23:13;4.20;99.90
20977;DHT22;10647;51.016;3.720;2022-12-10T18:25:44;4.00;99.90
20977;DHT22;10647;51.016;3.720;2022-12-10T18:31:16;4.10;99.90